sensor_id;sensor_type;location;lat;lon;timestamp;P1;durP1;ratioP1;P2;durP2;ratioP2
40787;SDS011;26497;52.494;7.546;2022-10-16T00:01:56;7.05;;;3.67;;
40787;SDS011;26497;52.494;7.546;2022-10-16T00:04:22;5.88;;;3.47;;
40787;SDS011;26497;52.494;7.546;2022-10-16T00:06:49;8.38;;;3.78;;
40787;SDS011;26497;52.494;7.546;2022-10-16T00:09:18;5.13;;;3.05;;
40787;SDS011;26497;52.494;7.546;2022-10-16T00:11:45;8.32;;;3.50;;
40787;SDS011;26497;52.494;7.546;2022-10-16T00:14:13;8.05;;;2.92;;
40787;SDS011;26497;52.494;7.546;2022-10-16T00:16:41;11.20;;;3.45;;
40787;SDS011;26497;52.494;7.546;2022-10-16T00:19:09;13.73;;;4.22;;
40787;SDS011;26497;52.494;7.546;2022-10-16T00:21:37;6.00;;;3.45;;
40787;SDS011;26497;52.494;7.546;2022-10-16T00:24:05;9.95;;;3.40;;
40787;SDS011;26497;52.494;7.546;2022-10-16T00:26:36;9.15;;;4.38;;
40787;SDS011;26497;52.494;7.546;2022-10-16T00:29:05;8.57;;;3.63;;
40787;SDS011;26497;52.494;7.546;2022-10-16T00:31:34;10.50;;;3.95;;
40787;SDS011;26497;52.494;7.546;2022-10-16T00:34:01;6.55;;;3.35;;
40787;SDS011;26497;52.494;7.546;2022-10-16T00:36:29;11.55;;;3.95;;
40787;SDS011;26497;52.494;7.546;2022-10-16T00:38:57;10.48;;;3.85;;
40787;SDS011;26497;52.494;7.546;2022-10-16T00:41:25;14.70;;;3.40;;
40787;SDS011;26497;52.494;7.546;2022-10-16T00:43:55;7.18;;;3.60;;
40787;SDS011;26497;52.494;7.546;2022-10-16T00:46:24;9.35;;;3.97;;
40787;SDS011;26497;52.494;7.546;2022-10-16T00:48:55;10.93;;;4.28;;
40787;SDS011;26497;52.494;7.546;2022-10-16T00:51:30;20.45;;;4.35;;
40787;SDS011;26497;52.494;7.546;2022-10-16T00:54:01;13.82;;;3.75;;
40787;SDS011;26497;52.494;7.546;2022-10-16T00:56:31;18.90;;;3.60;;
40787;SDS011;26497;52.494;7.546;2022-10-16T00:59:00;6.70;;;3.20;;
40787;SDS011;26497;52.494;7.546;2022-10-16T01:01:30;15.37;;;4.10;;
40787;SDS011;26497;52.494;7.546;2022-10-16T01:03:57;5.95;;;3.03;;
40787;SDS011;26497;52.494;7.546;2022-10-16T01:06:24;10.50;;;3.80;;
40787;SDS011;26497;52.494;7.546;2022-10-16T01:09:03;5.38;;;3.22;;
40787;SDS011;26497;52.494;7.546;2022-10-16T01:11:41;7.70;;;3.22;;
40787;SDS011;26497;52.494;7.546;2022-10-16T01:14:22;10.32;;;3.67;;
40787;SDS011;26497;52.494;7.546;2022-10-16T01:16:58;8.50;;;2.38;;
40787;SDS011;26497;52.494;7.546;2022-10-16T01:19:44;8.93;;;3.17;;
40787;SDS011;26497;52.494;7.546;2022-10-16T01:22:33;11.85;;;2.88;;
40787;SDS011;26497;52.494;7.546;2022-10-16T01:25:11;5.05;;;3.17;;
40787;SDS011;26497;52.494;7.546;2022-10-16T01:27:52;5.75;;;2.75;;
40787;SDS011;26497;52.494;7.546;2022-10-16T01:30:21;8.68;;;3.22;;
40787;SDS011;26497;52.494;7.546;2022-10-16T01:32:52;10.38;;;3.67;;
40787;SDS011;26497;52.494;7.546;2022-10-16T01:35:26;11.20;;;4.15;;
40787;SDS011;26497;52.494;7.546;2022-10-16T01:37:58;7.10;;;2.85;;
40787;SDS011;26497;52.494;7.546;2022-10-16T01:40:29;6.93;;;3.10;;
40787;SDS011;26497;52.494;7.546;2022-10-16T01:43:03;10.25;;;3.65;;
40787;SDS011;26497;52.494;7.546;2022-10-16T01:45:34;6.95;;;3.45;;
40787;SDS011;26497;52.494;7.546;2022-10-16T01:48:03;5.80;;;3.92;;
40787;SDS011;26497;52.494;7.546;2022-10-16T01:50:35;11.90;;;5.47;;
40787;SDS011;26497;52.494;7.546;2022-10-16T01:53:07;10.35;;;4.80;;
40787;SDS011;26497;52.494;7.546;2022-10-16T01:55:40;10.43;;;4.90;;
40787;SDS011;26497;52.494;7.546;2022-10-16T01:58:13;8.70;;;4.75;;
40787;SDS011;26497;52.494;7.546;2022-10-16T02:00:42;15.02;;;5.40;;
40787;SDS011;26497;52.494;7.546;2022-10-16T02:03:13;15.50;;;5.68;;
40787;SDS011;26497;52.494;7.546;2022-10-16T02:08:12;12.10;;;6.20;;
40787;SDS011;26497;52.494;7.546;2022-10-16T02:10:40;15.80;;;6.97;;
40787;SDS011;26497;52.494;7.546;2022-10-16T02:13:08;27.58;;;7.80;;
40787;SDS011;26497;52.494;7.546;2022-10-16T02:15:41;20.50;;;6.85;;
40787;SDS011;26497;52.494;7.546;2022-10-16T02:18:08;15.02;;;7.78;;
40787;SDS011;26497;52.494;7.546;2022-10-16T02:20:37;18.05;;;7.18;;
40787;SDS011;26497;52.494;7.546;2022-10-16T02:23:13;18.15;;;7.80;;
40787;SDS011;26497;52.494;7.546;2022-10-16T02:25:45;16.80;;;7.53;;
40787;SDS011;26497;52.494;7.546;2022-10-16T02:28:16;15.60;;;8.35;;
40787;SDS011;26497;52.494;7.546;2022-10-16T02:30:50;21.25;;;7.93;;
40787;SDS011;26497;52.494;7.546;2022-10-16T02:33:22;19.25;;;9.57;;
40787;SDS011;26497;52.494;7.546;2022-10-16T02:35:52;15.98;;;9.25;;
40787;SDS011;26497;52.494;7.546;2022-10-16T02:38:20;18.23;;;9.00;;
40787;SDS011;26497;52.494;7.546;2022-10-16T02:40:48;25.85;;;9.93;;
40787;SDS011;26497;52.494;7.546;2022-10-16T02:43:16;17.55;;;9.00;;
40787;SDS011;26497;52.494;7.546;2022-10-16T02:45:43;16.65;;;10.35;;
40787;SDS011;26497;52.494;7.546;2022-10-16T02:48:11;15.77;;;9.73;;
40787;SDS011;26497;52.494;7.546;2022-10-16T02:50:38;20.15;;;10.57;;
40787;SDS011;26497;52.494;7.546;2022-10-16T02:53:05;16.58;;;10.93;;
40787;SDS011;26497;52.494;7.546;2022-10-16T02:55:32;21.60;;;10.50;;
40787;SDS011;26497;52.494;7.546;2022-10-16T02:57:59;21.15;;;10.13;;
40787;SDS011;26497;52.494;7.546;2022-10-16T03:00:26;28.35;;;10.75;;
40787;SDS011;26497;52.494;7.546;2022-10-16T03:02:53;22.27;;;9.82;;
40787;SDS011;26497;52.494;7.546;2022-10-16T03:05:21;27.48;;;11.95;;
40787;SDS011;26497;52.494;7.546;2022-10-16T03:07:48;22.85;;;11.10;;
40787;SDS011;26497;52.494;7.546;2022-10-16T03:10:15;25.10;;;11.82;;
40787;SDS011;26497;52.494;7.546;2022-10-16T03:12:42;21.23;;;12.07;;
40787;SDS011;26497;52.494;7.546;2022-10-16T03:15:09;19.73;;;10.40;;
40787;SDS011;26497;52.494;7.546;2022-10-16T03:17:36;20.17;;;12.88;;
40787;SDS011;26497;52.494;7.546;2022-10-16T03:20:04;26.38;;;13.48;;
40787;SDS011;26497;52.494;7.546;2022-10-16T03:22:33;33.38;;;13.82;;
40787;SDS011;26497;52.494;7.546;2022-10-16T03:25:00;20.85;;;11.38;;
40787;SDS011;26497;52.494;7.546;2022-10-16T03:27:27;23.83;;;12.00;;
40787;SDS011;26497;52.494;7.546;2022-10-16T03:29:54;16.13;;;10.65;;
40787;SDS011;26497;52.494;7.546;2022-10-16T03:32:21;27.20;;;13.88;;
40787;SDS011;26497;52.494;7.546;2022-10-16T03:34:50;24.55;;;11.75;;
40787;SDS011;26497;52.494;7.546;2022-10-16T03:37:19;24.45;;;12.95;;
40787;SDS011;26497;52.494;7.546;2022-10-16T03:39:47;23.75;;;12.63;;
40787;SDS011;26497;52.494;7.546;2022-10-16T03:42:14;27.48;;;12.07;;
40787;SDS011;26497;52.494;7.546;2022-10-16T03:44:41;25.17;;;13.07;;
40787;SDS011;26497;52.494;7.546;2022-10-16T03:47:08;19.88;;;11.63;;
40787;SDS011;26497;52.494;7.546;2022-10-16T03:49:35;27.27;;;13.65;;
40787;SDS011;26497;52.494;7.546;2022-10-16T03:52:03;22.40;;;13.00;;
40787;SDS011;26497;52.494;7.546;2022-10-16T03:54:30;21.38;;;13.65;;
40787;SDS011;26497;52.494;7.546;2022-10-16T03:56:58;25.48;;;12.77;;
40787;SDS011;26497;52.494;7.546;2022-10-16T03:59:25;19.67;;;12.30;;
40787;SDS011;26497;52.494;7.546;2022-10-16T04:01:52;18.65;;;11.38;;
40787;SDS011;26497;52.494;7.546;2022-10-16T04:04:19;22.70;;;11.73;;
40787;SDS011;26497;52.494;7.546;2022-10-16T04:06:46;22.65;;;12.05;;
40787;SDS011;26497;52.494;7.546;2022-10-16T04:09:13;22.50;;;12.40;;
40787;SDS011;26497;52.494;7.546;2022-10-16T04:11:40;21.33;;;10.82;;
40787;SDS011;26497;52.494;7.546;2022-10-16T04:14:08;19.02;;;10.50;;
40787;SDS011;26497;52.494;7.546;2022-10-16T04:16:35;21.05;;;11.40;;
40787;SDS011;26497;52.494;7.546;2022-10-16T04:19:02;27.83;;;11.57;;
40787;SDS011;26497;52.494;7.546;2022-10-16T04:21:29;21.58;;;9.45;;
40787;SDS011;26497;52.494;7.546;2022-10-16T04:23:56;14.10;;;9.73;;
40787;SDS011;26497;52.494;7.546;2022-10-16T04:26:23;19.90;;;9.57;;
40787;SDS011;26497;52.494;7.546;2022-10-16T04:28:50;16.17;;;10.00;;
40787;SDS011;26497;52.494;7.546;2022-10-16T04:31:18;18.38;;;10.20;;
40787;SDS011;26497;52.494;7.546;2022-10-16T04:33:45;16.98;;;9.90;;
40787;SDS011;26497;52.494;7.546;2022-10-16T04:36:12;18.55;;;10.20;;
40787;SDS011;26497;52.494;7.546;2022-10-16T04:38:40;16.73;;;9.20;;
40787;SDS011;26497;52.494;7.546;2022-10-16T04:41:07;16.45;;;8.98;;
40787;SDS011;26497;52.494;7.546;2022-10-16T04:43:34;20.08;;;9.48;;
40787;SDS011;26497;52.494;7.546;2022-10-16T04:46:01;16.80;;;9.00;;
40787;SDS011;26497;52.494;7.546;2022-10-16T04:48:31;19.38;;;9.13;;
40787;SDS011;26497;52.494;7.546;2022-10-16T04:50:58;18.23;;;8.38;;
40787;SDS011;26497;52.494;7.546;2022-10-16T04:53:25;14.43;;;8.65;;
40787;SDS011;26497;52.494;7.546;2022-10-16T04:55:52;18.75;;;8.98;;
40787;SDS011;26497;52.494;7.546;2022-10-16T04:58:21;22.27;;;8.98;;
40787;SDS011;26497;52.494;7.546;2022-10-16T05:00:54;13.88;;;8.18;;
40787;SDS011;26497;52.494;7.546;2022-10-16T05:03:20;15.48;;;7.72;;
40787;SDS011;26497;52.494;7.546;2022-10-16T05:05:49;20.08;;;8.90;;
40787;SDS011;26497;52.494;7.546;2022-10-16T05:08:16;15.68;;;8.25;;
40787;SDS011;26497;52.494;7.546;2022-10-16T05:10:43;12.82;;;8.13;;
40787;SDS011;26497;52.494;7.546;2022-10-16T05:13:11;13.85;;;8.25;;
40787;SDS011;26497;52.494;7.546;2022-10-16T05:15:38;18.15;;;9.02;;
40787;SDS011;26497;52.494;7.546;2022-10-16T05:18:05;15.63;;;7.95;;
40787;SDS011;26497;52.494;7.546;2022-10-16T05:20:32;11.25;;;6.88;;
40787;SDS011;26497;52.494;7.546;2022-10-16T05:23:00;15.73;;;7.88;;
40787;SDS011;26497;52.494;7.546;2022-10-16T05:25:27;17.70;;;6.65;;
40787;SDS011;26497;52.494;7.546;2022-10-16T05:27:54;15.20;;;7.97;;
40787;SDS011;26497;52.494;7.546;2022-10-16T05:30:21;18.63;;;8.00;;
40787;SDS011;26497;52.494;7.546;2022-10-16T05:32:48;13.65;;;7.47;;
40787;SDS011;26497;52.494;7.546;2022-10-16T05:35:16;12.45;;;6.60;;
40787;SDS011;26497;52.494;7.546;2022-10-16T05:37:44;10.77;;;7.85;;
40787;SDS011;26497;52.494;7.546;2022-10-16T05:40:13;15.88;;;7.55;;
40787;SDS011;26497;52.494;7.546;2022-10-16T05:42:41;11.60;;;7.35;;
40787;SDS011;26497;52.494;7.546;2022-10-16T05:45:09;13.65;;;7.70;;
40787;SDS011;26497;52.494;7.546;2022-10-16T05:47:37;16.42;;;7.72;;
40787;SDS011;26497;52.494;7.546;2022-10-16T05:50:05;13.60;;;6.68;;
40787;SDS011;26497;52.494;7.546;2022-10-16T05:52:32;15.18;;;7.65;;
40787;SDS011;26497;52.494;7.546;2022-10-16T05:54:59;10.90;;;6.85;;
40787;SDS011;26497;52.494;7.546;2022-10-16T05:57:27;17.38;;;7.68;;
40787;SDS011;26497;52.494;7.546;2022-10-16T05:59:55;12.93;;;8.40;;
40787;SDS011;26497;52.494;7.546;2022-10-16T06:02:22;10.02;;;6.95;;
40787;SDS011;26497;52.494;7.546;2022-10-16T06:04:49;16.15;;;7.68;;
40787;SDS011;26497;52.494;7.546;2022-10-16T06:07:19;11.68;;;6.05;;
40787;SDS011;26497;52.494;7.546;2022-10-16T06:09:47;18.58;;;7.47;;
40787;SDS011;26497;52.494;7.546;2022-10-16T06:12:15;13.45;;;7.57;;
40787;SDS011;26497;52.494;7.546;2022-10-16T06:14:43;9.10;;;6.35;;
40787;SDS011;26497;52.494;7.546;2022-10-16T06:17:11;15.65;;;6.93;;
40787;SDS011;26497;52.494;7.546;2022-10-16T06:19:38;12.52;;;8.00;;
40787;SDS011;26497;52.494;7.546;2022-10-16T06:22:06;8.32;;;6.03;;
40787;SDS011;26497;52.494;7.546;2022-10-16T06:24:33;18.13;;;7.53;;
40787;SDS011;26497;52.494;7.546;2022-10-16T06:27:00;12.55;;;7.07;;
40787;SDS011;26497;52.494;7.546;2022-10-16T06:29:27;9.70;;;7.00;;
40787;SDS011;26497;52.494;7.546;2022-10-16T06:31:55;11.25;;;6.95;;
40787;SDS011;26497;52.494;7.546;2022-10-16T06:34:22;8.57;;;5.30;;
40787;SDS011;26497;52.494;7.546;2022-10-16T06:36:49;12.93;;;6.18;;
40787;SDS011;26497;52.494;7.546;2022-10-16T06:39:16;11.43;;;6.70;;
40787;SDS011;26497;52.494;7.546;2022-10-16T06:41:43;11.02;;;5.80;;
40787;SDS011;26497;52.494;7.546;2022-10-16T06:44:10;9.90;;;5.53;;
40787;SDS011;26497;52.494;7.546;2022-10-16T06:46:37;8.45;;;5.45;;
40787;SDS011;26497;52.494;7.546;2022-10-16T06:49:05;12.00;;;4.88;;
40787;SDS011;26497;52.494;7.546;2022-10-16T06:51:32;15.52;;;5.70;;
40787;SDS011;26497;52.494;7.546;2022-10-16T06:54:01;6.25;;;4.47;;
40787;SDS011;26497;52.494;7.546;2022-10-16T06:56:28;12.15;;;4.55;;
40787;SDS011;26497;52.494;7.546;2022-10-16T06:58:56;9.60;;;4.05;;
40787;SDS011;26497;52.494;7.546;2022-10-16T07:01:23;6.82;;;3.67;;
40787;SDS011;26497;52.494;7.546;2022-10-16T07:03:51;5.82;;;2.80;;
40787;SDS011;26497;52.494;7.546;2022-10-16T07:06:20;5.90;;;3.17;;
40787;SDS011;26497;52.494;7.546;2022-10-16T07:11:17;8.10;;;2.00;;
40787;SDS011;26497;52.494;7.546;2022-10-16T07:13:46;2.83;;;1.90;;
40787;SDS011;26497;52.494;7.546;2022-10-16T07:16:15;4.55;;;2.33;;
40787;SDS011;26497;52.494;7.546;2022-10-16T07:18:44;1.85;;;0.95;;
40787;SDS011;26497;52.494;7.546;2022-10-16T07:21:14;1.85;;;1.10;;
40787;SDS011;26497;52.494;7.546;2022-10-16T07:23:44;6.10;;;2.28;;
40787;SDS011;26497;52.494;7.546;2022-10-16T07:26:11;2.78;;;1.30;;
40787;SDS011;26497;52.494;7.546;2022-10-16T07:28:38;4.97;;;1.90;;
40787;SDS011;26497;52.494;7.546;2022-10-16T07:31:06;2.42;;;0.80;;
40787;SDS011;26497;52.494;7.546;2022-10-16T07:33:36;3.17;;;1.88;;
40787;SDS011;26497;52.494;7.546;2022-10-16T07:36:04;3.13;;;1.08;;
40787;SDS011;26497;52.494;7.546;2022-10-16T07:38:32;4.47;;;1.58;;
40787;SDS011;26497;52.494;7.546;2022-10-16T07:41:01;1.67;;;0.68;;
40787;SDS011;26497;52.494;7.546;2022-10-16T07:43:31;2.47;;;1.02;;
40787;SDS011;26497;52.494;7.546;2022-10-16T07:45:59;3.65;;;1.17;;
40787;SDS011;26497;52.494;7.546;2022-10-16T07:48:27;2.50;;;1.27;;
40787;SDS011;26497;52.494;7.546;2022-10-16T07:50:56;2.72;;;1.30;;
40787;SDS011;26497;52.494;7.546;2022-10-16T07:53:24;4.60;;;0.82;;
40787;SDS011;26497;52.494;7.546;2022-10-16T07:55:52;9.05;;;1.67;;
40787;SDS011;26497;52.494;7.546;2022-10-16T07:58:24;3.05;;;1.33;;
40787;SDS011;26497;52.494;7.546;2022-10-16T08:00:52;4.13;;;1.30;;
40787;SDS011;26497;52.494;7.546;2022-10-16T08:03:18;6.78;;;1.60;;
40787;SDS011;26497;52.494;7.546;2022-10-16T08:05:46;2.08;;;1.08;;
40787;SDS011;26497;52.494;7.546;2022-10-16T08:08:13;1.55;;;0.50;;
40787;SDS011;26497;52.494;7.546;2022-10-16T08:10:42;3.85;;;0.70;;
40787;SDS011;26497;52.494;7.546;2022-10-16T08:13:09;1.88;;;0.85;;
40787;SDS011;26497;52.494;7.546;2022-10-16T08:15:37;1.35;;;0.65;;
40787;SDS011;26497;52.494;7.546;2022-10-16T08:18:04;2.22;;;1.20;;
40787;SDS011;26497;52.494;7.546;2022-10-16T08:20:32;5.30;;;0.70;;
40787;SDS011;26497;52.494;7.546;2022-10-16T08:22:59;4.80;;;1.20;;
40787;SDS011;26497;52.494;7.546;2022-10-16T08:25:27;2.30;;;0.95;;
40787;SDS011;26497;52.494;7.546;2022-10-16T08:27:54;4.93;;;0.80;;
40787;SDS011;26497;52.494;7.546;2022-10-16T08:30:22;2.35;;;0.70;;
40787;SDS011;26497;52.494;7.546;2022-10-16T08:32:51;2.60;;;0.82;;
40787;SDS011;26497;52.494;7.546;2022-10-16T08:35:18;6.45;;;1.20;;
40787;SDS011;26497;52.494;7.546;2022-10-16T08:37:45;4.38;;;0.98;;
40787;SDS011;26497;52.494;7.546;2022-10-16T08:40:16;2.80;;;1.15;;
40787;SDS011;26497;52.494;7.546;2022-10-16T08:42:56;2.83;;;0.80;;
40787;SDS011;26497;52.494;7.546;2022-10-16T08:45:52;2.22;;;0.50;;
40787;SDS011;26497;52.494;7.546;2022-10-16T08:48:47;1.75;;;1.00;;
40787;SDS011;26497;52.494;7.546;2022-10-16T08:51:19;2.00;;;0.68;;
40787;SDS011;26497;52.494;7.546;2022-10-16T08:53:50;6.03;;;0.93;;
40787;SDS011;26497;52.494;7.546;2022-10-16T08:56:21;3.08;;;0.60;;
40787;SDS011;26497;52.494;7.546;2022-10-16T08:58:49;3.05;;;0.63;;
40787;SDS011;26497;52.494;7.546;2022-10-16T09:01:18;7.47;;;0.73;;
40787;SDS011;26497;52.494;7.546;2022-10-16T09:03:57;2.38;;;0.93;;
40787;SDS011;26497;52.494;7.546;2022-10-16T09:06:47;1.98;;;0.70;;
40787;SDS011;26497;52.494;7.546;2022-10-16T09:09:24;3.85;;;0.60;;
40787;SDS011;26497;52.494;7.546;2022-10-16T09:12:16;1.83;;;0.82;;
40787;SDS011;26497;52.494;7.546;2022-10-16T09:14:50;5.40;;;1.38;;
40787;SDS011;26497;52.494;7.546;2022-10-16T09:17:30;2.60;;;1.00;;
40787;SDS011;26497;52.494;7.546;2022-10-16T09:20:18;2.70;;;1.20;;
40787;SDS011;26497;52.494;7.546;2022-10-16T09:22:56;2.45;;;0.77;;
40787;SDS011;26497;52.494;7.546;2022-10-16T09:25:39;1.90;;;0.70;;
40787;SDS011;26497;52.494;7.546;2022-10-16T09:28:10;1.52;;;0.50;;
40787;SDS011;26497;52.494;7.546;2022-10-16T09:30:38;3.63;;;0.90;;
40787;SDS011;26497;52.494;7.546;2022-10-16T09:33:05;1.05;;;0.60;;
40787;SDS011;26497;52.494;7.546;2022-10-16T09:35:37;4.95;;;1.05;;
40787;SDS011;26497;52.494;7.546;2022-10-16T09:40:34;5.20;;;0.40;;
40787;SDS011;26497;52.494;7.546;2022-10-16T09:43:07;2.13;;;0.50;;
40787;SDS011;26497;52.494;7.546;2022-10-16T09:45:53;6.72;;;0.45;;
40787;SDS011;26497;52.494;7.546;2022-10-16T09:48:23;2.60;;;1.23;;
40787;SDS011;26497;52.494;7.546;2022-10-16T09:51:05;3.58;;;0.60;;
40787;SDS011;26497;52.494;7.546;2022-10-16T09:53:44;2.70;;;0.40;;
40787;SDS011;26497;52.494;7.546;2022-10-16T09:56:22;6.13;;;0.98;;
40787;SDS011;26497;52.494;7.546;2022-10-16T09:58:50;4.55;;;0.90;;
40787;SDS011;26497;52.494;7.546;2022-10-16T10:01:17;2.10;;;0.38;;
40787;SDS011;26497;52.494;7.546;2022-10-16T10:03:46;3.05;;;0.65;;
40787;SDS011;26497;52.494;7.546;2022-10-16T10:06:25;1.63;;;0.65;;
40787;SDS011;26497;52.494;7.546;2022-10-16T10:08:59;3.40;;;0.82;;
40787;SDS011;26497;52.494;7.546;2022-10-16T10:11:42;5.18;;;0.57;;
40787;SDS011;26497;52.494;7.546;2022-10-16T10:14:20;1.02;;;0.55;;
40787;SDS011;26497;52.494;7.546;2022-10-16T10:17:06;1.73;;;0.35;;
40787;SDS011;26497;52.494;7.546;2022-10-16T10:19:42;4.07;;;0.70;;
40787;SDS011;26497;52.494;7.546;2022-10-16T10:22:19;3.72;;;0.80;;
40787;SDS011;26497;52.494;7.546;2022-10-16T10:24:59;1.65;;;0.40;;
40787;SDS011;26497;52.494;7.546;2022-10-16T10:31:04;2.25;;;0.52;;
40787;SDS011;26497;52.494;7.546;2022-10-16T10:33:40;3.08;;;1.50;;
40787;SDS011;26497;52.494;7.546;2022-10-16T10:36:16;8.73;;;1.77;;
40787;SDS011;26497;52.494;7.546;2022-10-16T10:38:58;2.05;;;0.47;;
40787;SDS011;26497;52.494;7.546;2022-10-16T10:44:37;2.28;;;0.43;;
40787;SDS011;26497;52.494;7.546;2022-10-16T10:47:31;9.63;;;0.70;;
40787;SDS011;26497;52.494;7.546;2022-10-16T10:50:14;3.15;;;0.73;;
40787;SDS011;26497;52.494;7.546;2022-10-16T10:52:53;3.85;;;1.05;;
40787;SDS011;26497;52.494;7.546;2022-10-16T10:55:36;6.50;;;1.25;;
40787;SDS011;26497;52.494;7.546;2022-10-16T10:58:20;1.90;;;0.77;;
40787;SDS011;26497;52.494;7.546;2022-10-16T11:01:36;9.32;;;1.20;;
40787;SDS011;26497;52.494;7.546;2022-10-16T11:04:23;2.95;;;0.65;;
40787;SDS011;26497;52.494;7.546;2022-10-16T11:07:19;2.92;;;0.75;;
40787;SDS011;26497;52.494;7.546;2022-10-16T11:09:53;2.35;;;0.55;;
40787;SDS011;26497;52.494;7.546;2022-10-16T11:12:26;6.97;;;1.88;;
40787;SDS011;26497;52.494;7.546;2022-10-16T11:14:58;5.30;;;0.98;;
40787;SDS011;26497;52.494;7.546;2022-10-16T11:17:33;9.13;;;1.02;;
40787;SDS011;26497;52.494;7.546;2022-10-16T11:20:11;4.30;;;1.15;;
40787;SDS011;26497;52.494;7.546;2022-10-16T11:22:44;4.28;;;0.88;;
40787;SDS011;26497;52.494;7.546;2022-10-16T11:25:18;4.13;;;0.60;;
40787;SDS011;26497;52.494;7.546;2022-10-16T11:27:51;3.38;;;1.05;;
40787;SDS011;26497;52.494;7.546;2022-10-16T11:30:25;6.28;;;1.27;;
40787;SDS011;26497;52.494;7.546;2022-10-16T11:32:58;2.75;;;0.75;;
40787;SDS011;26497;52.494;7.546;2022-10-16T11:35:39;3.55;;;1.30;;
40787;SDS011;26497;52.494;7.546;2022-10-16T11:38:14;5.55;;;0.77;;
40787;SDS011;26497;52.494;7.546;2022-10-16T11:40:54;3.77;;;0.77;;
40787;SDS011;26497;52.494;7.546;2022-10-16T11:43:28;3.92;;;1.15;;
40787;SDS011;26497;52.494;7.546;2022-10-16T11:46:03;2.88;;;0.95;;
40787;SDS011;26497;52.494;7.546;2022-10-16T11:48:38;13.15;;;2.42;;
40787;SDS011;26497;52.494;7.546;2022-10-16T11:51:14;9.10;;;0.68;;
40787;SDS011;26497;52.494;7.546;2022-10-16T11:53:50;10.93;;;1.05;;
40787;SDS011;26497;52.494;7.546;2022-10-16T11:56:23;7.10;;;0.80;;
40787;SDS011;26497;52.494;7.546;2022-10-16T11:58:54;2.38;;;0.50;;
40787;SDS011;26497;52.494;7.546;2022-10-16T12:01:28;5.20;;;1.58;;
40787;SDS011;26497;52.494;7.546;2022-10-16T12:04:14;3.75;;;1.50;;
40787;SDS011;26497;52.494;7.546;2022-10-16T12:06:48;4.57;;;0.60;;
40787;SDS011;26497;52.494;7.546;2022-10-16T12:09:22;3.65;;;0.70;;
40787;SDS011;26497;52.494;7.546;2022-10-16T12:11:52;3.67;;;1.05;;
40787;SDS011;26497;52.494;7.546;2022-10-16T12:14:32;3.42;;;0.68;;
40787;SDS011;26497;52.494;7.546;2022-10-16T12:19:59;1.88;;;0.63;;
40787;SDS011;26497;52.494;7.546;2022-10-16T12:22:41;5.45;;;2.25;;
40787;SDS011;26497;52.494;7.546;2022-10-16T12:25:20;5.43;;;2.33;;
40787;SDS011;26497;52.494;7.546;2022-10-16T12:28:00;10.45;;;5.22;;
40787;SDS011;26497;52.494;7.546;2022-10-16T12:30:32;11.30;;;4.25;;
40787;SDS011;26497;52.494;7.546;2022-10-16T12:33:02;5.22;;;1.80;;
40787;SDS011;26497;52.494;7.546;2022-10-16T12:35:32;3.92;;;1.02;;
40787;SDS011;26497;52.494;7.546;2022-10-16T12:38:12;2.60;;;1.13;;
40787;SDS011;26497;52.494;7.546;2022-10-16T12:40:44;5.95;;;1.45;;
40787;SDS011;26497;52.494;7.546;2022-10-16T12:43:26;6.53;;;1.08;;
40787;SDS011;26497;52.494;7.546;2022-10-16T12:46:04;6.25;;;1.23;;
40787;SDS011;26497;52.494;7.546;2022-10-16T12:48:49;5.00;;;0.93;;
40787;SDS011;26497;52.494;7.546;2022-10-16T12:51:22;5.43;;;0.95;;
40787;SDS011;26497;52.494;7.546;2022-10-16T12:54:00;6.28;;;0.95;;
40787;SDS011;26497;52.494;7.546;2022-10-16T12:56:32;6.43;;;0.90;;
40787;SDS011;26497;52.494;7.546;2022-10-16T12:59:15;4.93;;;1.35;;
40787;SDS011;26497;52.494;7.546;2022-10-16T13:02:04;3.03;;;0.82;;
40787;SDS011;26497;52.494;7.546;2022-10-16T13:05:13;3.28;;;1.30;;
40787;SDS011;26497;52.494;7.546;2022-10-16T13:07:55;7.13;;;1.20;;
40787;SDS011;26497;52.494;7.546;2022-10-16T13:10:34;3.72;;;0.50;;
40787;SDS011;26497;52.494;7.546;2022-10-16T13:13:12;9.40;;;1.90;;
40787;SDS011;26497;52.494;7.546;2022-10-16T13:15:55;5.15;;;1.17;;
40787;SDS011;26497;52.494;7.546;2022-10-16T13:18:38;3.50;;;0.50;;
40787;SDS011;26497;52.494;7.546;2022-10-16T13:21:21;5.13;;;1.10;;
40787;SDS011;26497;52.494;7.546;2022-10-16T13:24:01;3.55;;;1.20;;
40787;SDS011;26497;52.494;7.546;2022-10-16T13:26:38;7.15;;;1.38;;
40787;SDS011;26497;52.494;7.546;2022-10-16T13:29:14;3.83;;;0.90;;
40787;SDS011;26497;52.494;7.546;2022-10-16T13:31:42;3.70;;;1.15;;
40787;SDS011;26497;52.494;7.546;2022-10-16T13:34:12;7.25;;;1.67;;
40787;SDS011;26497;52.494;7.546;2022-10-16T13:36:44;4.45;;;1.10;;
40787;SDS011;26497;52.494;7.546;2022-10-16T13:39:15;5.15;;;1.13;;
40787;SDS011;26497;52.494;7.546;2022-10-16T13:41:58;2.70;;;0.82;;
40787;SDS011;26497;52.494;7.546;2022-10-16T13:44:31;4.13;;;1.25;;
40787;SDS011;26497;52.494;7.546;2022-10-16T13:47:05;6.45;;;1.05;;
40787;SDS011;26497;52.494;7.546;2022-10-16T13:49:42;7.35;;;1.13;;
40787;SDS011;26497;52.494;7.546;2022-10-16T13:52:15;5.55;;;1.33;;
40787;SDS011;26497;52.494;7.546;2022-10-16T13:54:45;5.47;;;1.13;;
40787;SDS011;26497;52.494;7.546;2022-10-16T13:57:12;2.90;;;1.08;;
40787;SDS011;26497;52.494;7.546;2022-10-16T13:59:40;6.15;;;1.27;;
40787;SDS011;26497;52.494;7.546;2022-10-16T14:02:10;7.78;;;1.10;;
40787;SDS011;26497;52.494;7.546;2022-10-16T14:04:48;5.28;;;1.00;;
40787;SDS011;26497;52.494;7.546;2022-10-16T14:07:18;14.15;;;1.15;;
40787;SDS011;26497;52.494;7.546;2022-10-16T14:09:53;4.78;;;0.57;;
40787;SDS011;26497;52.494;7.546;2022-10-16T14:12:21;5.32;;;1.45;;
40787;SDS011;26497;52.494;7.546;2022-10-16T14:14:49;6.15;;;1.40;;
40787;SDS011;26497;52.494;7.546;2022-10-16T14:17:19;4.25;;;0.60;;
40787;SDS011;26497;52.494;7.546;2022-10-16T14:19:52;6.65;;;0.90;;
40787;SDS011;26497;52.494;7.546;2022-10-16T14:22:24;10.48;;;1.73;;
40787;SDS011;26497;52.494;7.546;2022-10-16T14:24:56;7.95;;;0.80;;
40787;SDS011;26497;52.494;7.546;2022-10-16T14:27:26;2.92;;;0.82;;
40787;SDS011;26497;52.494;7.546;2022-10-16T14:30:13;6.13;;;1.20;;
40787;SDS011;26497;52.494;7.546;2022-10-16T14:32:52;4.28;;;0.95;;
40787;SDS011;26497;52.494;7.546;2022-10-16T14:35:24;5.18;;;1.23;;
40787;SDS011;26497;52.494;7.546;2022-10-16T14:37:56;4.57;;;0.60;;
40787;SDS011;26497;52.494;7.546;2022-10-16T14:40:26;8.38;;;2.28;;
40787;SDS011;26497;52.494;7.546;2022-10-16T14:46:36;4.00;;;1.52;;
40787;SDS011;26497;52.494;7.546;2022-10-16T14:49:13;9.25;;;1.35;;
40787;SDS011;26497;52.494;7.546;2022-10-16T14:51:46;2.92;;;0.95;;
40787;SDS011;26497;52.494;7.546;2022-10-16T14:54:13;5.35;;;0.93;;
40787;SDS011;26497;52.494;7.546;2022-10-16T14:56:43;4.47;;;0.80;;
40787;SDS011;26497;52.494;7.546;2022-10-16T14:59:16;5.78;;;1.40;;
40787;SDS011;26497;52.494;7.546;2022-10-16T15:01:50;7.38;;;1.52;;
40787;SDS011;26497;52.494;7.546;2022-10-16T15:04:17;3.80;;;0.80;;
40787;SDS011;26497;52.494;7.546;2022-10-16T15:06:46;7.38;;;1.30;;
40787;SDS011;26497;52.494;7.546;2022-10-16T15:09:13;5.15;;;0.90;;
40787;SDS011;26497;52.494;7.546;2022-10-16T15:11:40;9.88;;;2.00;;
40787;SDS011;26497;52.494;7.546;2022-10-16T15:14:09;7.35;;;1.20;;
40787;SDS011;26497;52.494;7.546;2022-10-16T15:16:38;4.70;;;0.63;;
40787;SDS011;26497;52.494;7.546;2022-10-16T15:19:05;4.47;;;1.33;;
40787;SDS011;26497;52.494;7.546;2022-10-16T15:21:32;5.03;;;1.63;;
40787;SDS011;26497;52.494;7.546;2022-10-16T15:24:00;5.03;;;1.05;;
40787;SDS011;26497;52.494;7.546;2022-10-16T15:26:28;10.60;;;1.90;;
40787;SDS011;26497;52.494;7.546;2022-10-16T15:28:56;9.68;;;1.42;;